sensor_id;sensor_type;location;lat;lon;timestamp;P1;durP1;ratioP1;P2;durP2;ratioP2
79204;SDS011;68632;47.512;19.104;2023-11-19T00:00:05;11.07;;;7.30;;
79204;SDS011;68632;47.512;19.104;2023-11-19T00:01:08;11.15;;;7.25;;
79204;SDS011;68632;47.512;19.104;2023-11-19T00:02:10;12.40;;;7.93;;
79204;SDS011;68632;47.512;19.104;2023-11-19T00:03:13;14.15;;;7.43;;
79204;SDS011;68632;47.512;19.104;2023-11-19T00:04:15;11.07;;;7.07;;
79204;SDS011;68632;47.512;19.104;2023-11-19T00:05:17;11.60;;;7.00;;
79204;SDS011;68632;47.512;19.104;2023-11-19T00:06:20;11.43;;;7.90;;
79204;SDS011;68632;47.512;19.104;2023-11-19T00:07:22;11.20;;;8.00;;
79204;SDS011;68632;47.512;19.104;2023-11-19T00:08:31;11.13;;;7.38;;
79204;SDS011;68632;47.512;19.104;2023-11-19T00:09:33;12.23;;;7.85;;
79204;SDS011;68632;47.512;19.104;2023-11-19T00:10:38;11.55;;;7.18;;
79204;SDS011;68632;47.512;19.104;2023-11-19T00:11:40;11.38;;;7.05;;
79204;SDS011;68632;47.512;19.104;2023-11-19T00:12:43;12.35;;;6.80;;
79204;SDS011;68632;47.512;19.104;2023-11-19T00:13:46;12.13;;;7.85;;
79204;SDS011;68632;47.512;19.104;2023-11-19T00:14:49;10.82;;;6.78;;
79204;SDS011;68632;47.512;19.104;2023-11-19T00:15:51;13.60;;;8.55;;
79204;SDS011;68632;47.512;19.104;2023-11-19T00:16:53;12.00;;;8.82;;
79204;SDS011;68632;47.512;19.104;2023-11-19T00:17:55;11.98;;;7.20;;
79204;SDS011;68632;47.512;19.104;2023-11-19T00:19:01;12.52;;;8.27;;
79204;SDS011;68632;47.512;19.104;2023-11-19T00:20:06;11.52;;;6.80;;
79204;SDS011;68632;47.512;19.104;2023-11-19T00:21:09;11.50;;;7.55;;
79204;SDS011;68632;47.512;19.104;2023-11-19T00:22:12;11.80;;;7.03;;
79204;SDS011;68632;47.512;19.104;2023-11-19T00:23:14;10.65;;;7.07;;
79204;SDS011;68632;47.512;19.104;2023-11-19T00:24:16;11.93;;;7.43;;
79204;SDS011;68632;47.512;19.104;2023-11-19T00:25:19;10.63;;;7.32;;
79204;SDS011;68632;47.512;19.104;2023-11-19T00:26:24;13.15;;;7.70;;
79204;SDS011;68632;47.512;19.104;2023-11-19T00:27:26;12.93;;;6.13;;
79204;SDS011;68632;47.512;19.104;2023-11-19T00:28:28;9.98;;;7.18;;
79204;SDS011;68632;47.512;19.104;2023-11-19T00:29:30;12.95;;;8.10;;
79204;SDS011;68632;47.512;19.104;2023-11-19T00:30:32;11.82;;;6.93;;
79204;SDS011;68632;47.512;19.104;2023-11-19T00:31:35;10.52;;;7.50;;
79204;SDS011;68632;47.512;19.104;2023-11-19T00:32:37;10.43;;;6.90;;
79204;SDS011;68632;47.512;19.104;2023-11-19T00:33:41;12.20;;;7.50;;
79204;SDS011;68632;47.512;19.104;2023-11-19T00:34:46;10.18;;;6.55;;
79204;SDS011;68632;47.512;19.104;2023-11-19T00:35:49;9.50;;;7.90;;
79204;SDS011;68632;47.512;19.104;2023-11-19T00:36:52;10.95;;;6.93;;
79204;SDS011;68632;47.512;19.104;2023-11-19T00:37:54;16.50;;;8.25;;
79204;SDS011;68632;47.512;19.104;2023-11-19T00:38:56;11.55;;;6.18;;
79204;SDS011;68632;47.512;19.104;2023-11-19T00:39:59;14.27;;;7.63;;
79204;SDS011;68632;47.512;19.104;2023-11-19T00:41:01;11.50;;;7.85;;
79204;SDS011;68632;47.512;19.104;2023-11-19T00:42:04;11.63;;;7.55;;
79204;SDS011;68632;47.512;19.104;2023-11-19T00:43:07;13.45;;;7.60;;
79204;SDS011;68632;47.512;19.104;2023-11-19T00:44:09;10.25;;;7.20;;
79204;SDS011;68632;47.512;19.104;2023-11-19T00:45:11;13.30;;;9.25;;
79204;SDS011;68632;47.512;19.104;2023-11-19T00:46:15;11.77;;;7.90;;
79204;SDS011;68632;47.512;19.104;2023-11-19T00:47:17;10.75;;;7.95;;
79204;SDS011;68632;47.512;19.104;2023-11-19T00:48:23;11.50;;;7.70;;
79204;SDS011;68632;47.512;19.104;2023-11-19T00:49:25;10.48;;;7.63;;
79204;SDS011;68632;47.512;19.104;2023-11-19T00:50:28;10.07;;;6.70;;
79204;SDS011;68632;47.512;19.104;2023-11-19T00:51:31;13.10;;;7.70;;
79204;SDS011;68632;47.512;19.104;2023-11-19T00:52:33;10.68;;;7.20;;
79204;SDS011;68632;47.512;19.104;2023-11-19T00:53:35;12.38;;;7.78;;
79204;SDS011;68632;47.512;19.104;2023-11-19T00:54:37;11.15;;;7.15;;
79204;SDS011;68632;47.512;19.104;2023-11-19T00:55:39;9.98;;;7.20;;
79204;SDS011;68632;47.512;19.104;2023-11-19T00:56:44;10.52;;;7.75;;
79204;SDS011;68632;47.512;19.104;2023-11-19T00:57:47;11.15;;;6.63;;
79204;SDS011;68632;47.512;19.104;2023-11-19T00:58:49;10.00;;;7.63;;
79204;SDS011;68632;47.512;19.104;2023-11-19T00:59:51;10.63;;;7.45;;
79204;SDS011;68632;47.512;19.104;2023-11-19T01:00:53;11.15;;;7.10;;
79204;SDS011;68632;47.512;19.104;2023-11-19T01:01:55;11.10;;;7.15;;
79204;SDS011;68632;47.512;19.104;2023-11-19T01:02:58;11.05;;;7.00;;
79204;SDS011;68632;47.512;19.104;2023-11-19T01:04:02;10.18;;;7.28;;
79204;SDS011;68632;47.512;19.104;2023-11-19T01:05:04;12.48;;;7.78;;
79204;SDS011;68632;47.512;19.104;2023-11-19T01:06:09;11.85;;;7.70;;
79204;SDS011;68632;47.512;19.104;2023-11-19T01:07:12;13.95;;;7.88;;
79204;SDS011;68632;47.512;19.104;2023-11-19T01:08:15;11.90;;;6.95;;
79204;SDS011;68632;47.512;19.104;2023-11-19T01:09:18;13.30;;;6.78;;
79204;SDS011;68632;47.512;19.104;2023-11-19T01:10:20;13.75;;;7.32;;
79204;SDS011;68632;47.512;19.104;2023-11-19T01:11:22;11.63;;;8.07;;
79204;SDS011;68632;47.512;19.104;2023-11-19T01:12:25;12.27;;;8.23;;
79204;SDS011;68632;47.512;19.104;2023-11-19T01:13:27;9.77;;;6.93;;
79204;SDS011;68632;47.512;19.104;2023-11-19T01:14:29;12.63;;;6.90;;
79204;SDS011;68632;47.512;19.104;2023-11-19T01:15:32;12.93;;;6.90;;
79204;SDS011;68632;47.512;19.104;2023-11-19T01:16:34;11.32;;;7.68;;
79204;SDS011;68632;47.512;19.104;2023-11-19T01:17:39;10.80;;;7.63;;
79204;SDS011;68632;47.512;19.104;2023-11-19T01:18:53;12.52;;;7.50;;
79204;SDS011;68632;47.512;19.104;2023-11-19T01:20:13;10.95;;;7.25;;
79204;SDS011;68632;47.512;19.104;2023-11-19T01:21:15;9.23;;;6.70;;
79204;SDS011;68632;47.512;19.104;2023-11-19T01:22:18;10.90;;;7.30;;
79204;SDS011;68632;47.512;19.104;2023-11-19T01:23:21;12.40;;;7.43;;
79204;SDS011;68632;47.512;19.104;2023-11-19T01:24:23;12.35;;;8.05;;
79204;SDS011;68632;47.512;19.104;2023-11-19T01:25:25;11.65;;;7.90;;
79204;SDS011;68632;47.512;19.104;2023-11-19T01:26:27;11.98;;;7.47;;
79204;SDS011;68632;47.512;19.104;2023-11-19T01:27:29;11.65;;;7.72;;
79204;SDS011;68632;47.512;19.104;2023-11-19T01:28:31;11.45;;;7.32;;
79204;SDS011;68632;47.512;19.104;2023-11-19T01:29:34;12.73;;;8.35;;
79204;SDS011;68632;47.512;19.104;2023-11-19T01:30:36;12.25;;;7.63;;
79204;SDS011;68632;47.512;19.104;2023-11-19T01:31:38;12.23;;;7.82;;
79204;SDS011;68632;47.512;19.104;2023-11-19T01:32:41;13.00;;;7.75;;
79204;SDS011;68632;47.512;19.104;2023-11-19T01:33:43;11.50;;;7.95;;
79204;SDS011;68632;47.512;19.104;2023-11-19T01:34:45;12.90;;;8.05;;
79204;SDS011;68632;47.512;19.104;2023-11-19T01:35:47;13.65;;;7.60;;
79204;SDS011;68632;47.512;19.104;2023-11-19T01:36:50;14.43;;;8.88;;
79204;SDS011;68632;47.512;19.104;2023-11-19T01:37:52;11.15;;;8.15;;
79204;SDS011;68632;47.512;19.104;2023-11-19T01:38:54;12.65;;;8.15;;
79204;SDS011;68632;47.512;19.104;2023-11-19T01:39:56;12.25;;;7.88;;
79204;SDS011;68632;47.512;19.104;2023-11-19T01:41:00;13.30;;;8.45;;
79204;SDS011;68632;47.512;19.104;2023-11-19T01:42:05;14.18;;;9.18;;
79204;SDS011;68632;47.512;19.104;2023-11-19T01:43:07;13.02;;;7.53;;
79204;SDS011;68632;47.512;19.104;2023-11-19T01:44:13;12.80;;;8.30;;
79204;SDS011;68632;47.512;19.104;2023-11-19T01:45:22;13.23;;;7.18;;
79204;SDS011;68632;47.512;19.104;2023-11-19T01:46:29;14.07;;;8.05;;
79204;SDS011;68632;47.512;19.104;2023-11-19T01:47:34;12.88;;;8.18;;
79204;SDS011;68632;47.512;19.104;2023-11-19T01:48:42;14.20;;;8.27;;
79204;SDS011;68632;47.512;19.104;2023-11-19T01:49:47;14.02;;;8.40;;
79204;SDS011;68632;47.512;19.104;2023-11-19T01:50:49;13.20;;;7.63;;
79204;SDS011;68632;47.512;19.104;2023-11-19T01:52:03;13.15;;;8.38;;
79204;SDS011;68632;47.512;19.104;2023-11-19T01:53:07;11.88;;;8.50;;
79204;SDS011;68632;47.512;19.104;2023-11-19T01:54:09;13.10;;;7.65;;
79204;SDS011;68632;47.512;19.104;2023-11-19T01:55:11;13.02;;;8.63;;
79204;SDS011;68632;47.512;19.104;2023-11-19T01:56:14;11.65;;;7.50;;
79204;SDS011;68632;47.512;19.104;2023-11-19T01:57:17;12.85;;;8.07;;
79204;SDS011;68632;47.512;19.104;2023-11-19T01:58:20;12.68;;;8.55;;
79204;SDS011;68632;47.512;19.104;2023-11-19T01:59:23;13.90;;;8.32;;
79204;SDS011;68632;47.512;19.104;2023-11-19T02:00:28;12.00;;;7.03;;
79204;SDS011;68632;47.512;19.104;2023-11-19T02:01:30;12.75;;;8.20;;
79204;SDS011;68632;47.512;19.104;2023-11-19T02:02:34;12.73;;;8.93;;
79204;SDS011;68632;47.512;19.104;2023-11-19T02:03:37;13.93;;;8.70;;
79204;SDS011;68632;47.512;19.104;2023-11-19T02:04:39;13.80;;;8.55;;
79204;SDS011;68632;47.512;19.104;2023-11-19T02:05:42;14.05;;;8.82;;
79204;SDS011;68632;47.512;19.104;2023-11-19T02:06:44;14.07;;;8.40;;
79204;SDS011;68632;47.512;19.104;2023-11-19T02:07:47;12.55;;;7.43;;
79204;SDS011;68632;47.512;19.104;2023-11-19T02:08:49;15.93;;;9.75;;
79204;SDS011;68632;47.512;19.104;2023-11-19T02:09:51;13.23;;;8.32;;
79204;SDS011;68632;47.512;19.104;2023-11-19T02:10:53;16.52;;;9.73;;
79204;SDS011;68632;47.512;19.104;2023-11-19T02:11:59;14.85;;;9.50;;
79204;SDS011;68632;47.512;19.104;2023-11-19T02:13:01;15.90;;;10.52;;
79204;SDS011;68632;47.512;19.104;2023-11-19T02:14:08;18.13;;;10.55;;
79204;SDS011;68632;47.512;19.104;2023-11-19T02:15:10;15.45;;;9.75;;
79204;SDS011;68632;47.512;19.104;2023-11-19T02:16:12;13.95;;;9.57;;
79204;SDS011;68632;47.512;19.104;2023-11-19T02:17:27;14.38;;;9.15;;
79204;SDS011;68632;47.512;19.104;2023-11-19T02:18:36;17.08;;;8.93;;
79204;SDS011;68632;47.512;19.104;2023-11-19T02:19:38;16.02;;;10.10;;
79204;SDS011;68632;47.512;19.104;2023-11-19T02:20:40;16.13;;;10.27;;
79204;SDS011;68632;47.512;19.104;2023-11-19T02:21:43;16.02;;;9.30;;
79204;SDS011;68632;47.512;19.104;2023-11-19T02:22:45;16.95;;;9.90;;
79204;SDS011;68632;47.512;19.104;2023-11-19T02:23:48;14.05;;;10.40;;
79204;SDS011;68632;47.512;19.104;2023-11-19T02:24:51;14.73;;;10.15;;
79204;SDS011;68632;47.512;19.104;2023-11-19T02:26:03;17.98;;;10.15;;
79204;SDS011;68632;47.512;19.104;2023-11-19T02:27:16;14.85;;;9.82;;
79204;SDS011;68632;47.512;19.104;2023-11-19T02:28:26;17.63;;;9.38;;
79204;SDS011;68632;47.512;19.104;2023-11-19T02:29:28;17.05;;;10.10;;
79204;SDS011;68632;47.512;19.104;2023-11-19T02:30:31;15.00;;;8.93;;
79204;SDS011;68632;47.512;19.104;2023-11-19T02:31:33;12.52;;;9.02;;
79204;SDS011;68632;47.512;19.104;2023-11-19T02:32:37;17.13;;;10.02;;
79204;SDS011;68632;47.512;19.104;2023-11-19T02:33:42;14.60;;;9.80;;
79204;SDS011;68632;47.512;19.104;2023-11-19T02:34:44;15.15;;;9.52;;
79204;SDS011;68632;47.512;19.104;2023-11-19T02:35:46;15.13;;;8.63;;
79204;SDS011;68632;47.512;19.104;2023-11-19T02:36:49;14.23;;;8.73;;
79204;SDS011;68632;47.512;19.104;2023-11-19T02:37:51;13.05;;;9.18;;
79204;SDS011;68632;47.512;19.104;2023-11-19T02:38:54;15.88;;;9.60;;
79204;SDS011;68632;47.512;19.104;2023-11-19T02:39:56;17.27;;;9.80;;
79204;SDS011;68632;47.512;19.104;2023-11-19T02:41:06;16.10;;;10.25;;
79204;SDS011;68632;47.512;19.104;2023-11-19T02:42:08;15.55;;;9.75;;
79204;SDS011;68632;47.512;19.104;2023-11-19T02:43:10;16.15;;;10.82;;
79204;SDS011;68632;47.512;19.104;2023-11-19T02:44:13;19.95;;;10.43;;
79204;SDS011;68632;47.512;19.104;2023-11-19T02:45:15;19.48;;;11.60;;
79204;SDS011;68632;47.512;19.104;2023-11-19T02:46:18;14.98;;;9.63;;
79204;SDS011;68632;47.512;19.104;2023-11-19T02:47:21;19.30;;;11.30;;
79204;SDS011;68632;47.512;19.104;2023-11-19T02:48:25;16.27;;;9.68;;
79204;SDS011;68632;47.512;19.104;2023-11-19T02:49:27;19.00;;;11.77;;
79204;SDS011;68632;47.512;19.104;2023-11-19T02:50:30;18.73;;;9.98;;
79204;SDS011;68632;47.512;19.104;2023-11-19T02:51:33;17.38;;;11.27;;
79204;SDS011;68632;47.512;19.104;2023-11-19T02:52:36;22.15;;;11.23;;
79204;SDS011;68632;47.512;19.104;2023-11-19T02:53:39;15.95;;;9.80;;
79204;SDS011;68632;47.512;19.104;2023-11-19T02:54:42;21.98;;;12.40;;
79204;SDS011;68632;47.512;19.104;2023-11-19T02:55:45;16.65;;;9.90;;
79204;SDS011;68632;47.512;19.104;2023-11-19T02:56:51;20.95;;;11.10;;
79204;SDS011;68632;47.512;19.104;2023-11-19T02:57:57;17.85;;;10.88;;
79204;SDS011;68632;47.512;19.104;2023-11-19T02:59:01;21.10;;;12.32;;
79204;SDS011;68632;47.512;19.104;2023-11-19T03:00:31;17.20;;;10.85;;
79204;SDS011;68632;47.512;19.104;2023-11-19T03:01:39;21.70;;;13.30;;
79204;SDS011;68632;47.512;19.104;2023-11-19T03:02:45;19.40;;;11.95;;
79204;SDS011;68632;47.512;19.104;2023-11-19T03:03:50;17.83;;;11.02;;
79204;SDS011;68632;47.512;19.104;2023-11-19T03:04:56;15.48;;;11.07;;
79204;SDS011;68632;47.512;19.104;2023-11-19T03:06:01;20.50;;;10.95;;
79204;SDS011;68632;47.512;19.104;2023-11-19T03:07:06;18.42;;;12.20;;
79204;SDS011;68632;47.512;19.104;2023-11-19T03:08:09;19.08;;;10.30;;
79204;SDS011;68632;47.512;19.104;2023-11-19T03:09:23;20.73;;;12.02;;
79204;SDS011;68632;47.512;19.104;2023-11-19T03:10:26;16.95;;;10.45;;
79204;SDS011;68632;47.512;19.104;2023-11-19T03:11:28;18.52;;;11.45;;
79204;SDS011;68632;47.512;19.104;2023-11-19T03:12:30;18.25;;;12.32;;
79204;SDS011;68632;47.512;19.104;2023-11-19T03:13:33;19.08;;;11.45;;
79204;SDS011;68632;47.512;19.104;2023-11-19T03:14:35;19.40;;;11.50;;
79204;SDS011;68632;47.512;19.104;2023-11-19T03:15:37;20.38;;;11.65;;
79204;SDS011;68632;47.512;19.104;2023-11-19T03:16:39;21.50;;;12.00;;
79204;SDS011;68632;47.512;19.104;2023-11-19T03:17:41;19.45;;;12.18;;
79204;SDS011;68632;47.512;19.104;2023-11-19T03:18:44;21.77;;;11.32;;
79204;SDS011;68632;47.512;19.104;2023-11-19T03:19:46;22.33;;;11.63;;
79204;SDS011;68632;47.512;19.104;2023-11-19T03:20:50;19.92;;;13.23;;
79204;SDS011;68632;47.512;19.104;2023-11-19T03:21:52;18.10;;;12.23;;
79204;SDS011;68632;47.512;19.104;2023-11-19T03:22:54;16.75;;;10.90;;
79204;SDS011;68632;47.512;19.104;2023-11-19T03:23:57;19.02;;;11.85;;
79204;SDS011;68632;47.512;19.104;2023-11-19T03:25:02;18.70;;;11.95;;
79204;SDS011;68632;47.512;19.104;2023-11-19T03:26:04;19.45;;;11.45;;
79204;SDS011;68632;47.512;19.104;2023-11-19T03:27:07;18.58;;;11.00;;
79204;SDS011;68632;47.512;19.104;2023-11-19T03:28:10;19.33;;;12.23;;
79204;SDS011;68632;47.512;19.104;2023-11-19T03:29:13;21.05;;;11.05;;
79204;SDS011;68632;47.512;19.104;2023-11-19T03:30:15;18.40;;;11.15;;
79204;SDS011;68632;47.512;19.104;2023-11-19T03:31:19;17.25;;;10.00;;
79204;SDS011;68632;47.512;19.104;2023-11-19T03:32:22;21.98;;;11.50;;
79204;SDS011;68632;47.512;19.104;2023-11-19T03:33:24;19.60;;;11.77;;
79204;SDS011;68632;47.512;19.104;2023-11-19T03:34:27;17.63;;;11.13;;
79204;SDS011;68632;47.512;19.104;2023-11-19T03:35:29;20.25;;;12.55;;
79204;SDS011;68632;47.512;19.104;2023-11-19T03:36:32;18.35;;;10.85;;
79204;SDS011;68632;47.512;19.104;2023-11-19T03:37:35;17.25;;;10.85;;
79204;SDS011;68632;47.512;19.104;2023-11-19T03:38:38;17.65;;;10.98;;
79204;SDS011;68632;47.512;19.104;2023-11-19T03:39:40;21.20;;;11.10;;
79204;SDS011;68632;47.512;19.104;2023-11-19T03:40:42;21.13;;;12.32;;
79204;SDS011;68632;47.512;19.104;2023-11-19T03:41:45;20.58;;;12.38;;
79204;SDS011;68632;47.512;19.104;2023-11-19T03:42:48;17.33;;;11.25;;
79204;SDS011;68632;47.512;19.104;2023-11-19T03:43:51;19.58;;;11.73;;
79204;SDS011;68632;47.512;19.104;2023-11-19T03:44:53;19.58;;;10.40;;
79204;SDS011;68632;47.512;19.104;2023-11-19T03:45:56;17.17;;;10.88;;
79204;SDS011;68632;47.512;19.104;2023-11-19T03:46:58;20.70;;;12.95;;
79204;SDS011;68632;47.512;19.104;2023-11-19T03:48:00;19.33;;;11.20;;
79204;SDS011;68632;47.512;19.104;2023-11-19T03:49:02;17.98;;;11.32;;
79204;SDS011;68632;47.512;19.104;2023-11-19T03:50:06;18.05;;;11.15;;
79204;SDS011;68632;47.512;19.104;2023-11-19T03:51:12;20.73;;;11.73;;
79204;SDS011;68632;47.512;19.104;2023-11-19T03:52:17;18.77;;;12.15;;
79204;SDS011;68632;47.512;19.104;2023-11-19T03:53:22;20.20;;;11.57;;
79204;SDS011;68632;47.512;19.104;2023-11-19T03:54:25;17.95;;;12.23;;
79204;SDS011;68632;47.512;19.104;2023-11-19T03:55:29;23.08;;;12.35;;
79204;SDS011;68632;47.512;19.104;2023-11-19T03:56:31;19.70;;;11.65;;
79204;SDS011;68632;47.512;19.104;2023-11-19T03:57:34;17.55;;;11.95;;
79204;SDS011;68632;47.512;19.104;2023-11-19T03:58:37;24.38;;;11.77;;
79204;SDS011;68632;47.512;19.104;2023-11-19T03:59:40;16.50;;;10.55;;
79204;SDS011;68632;47.512;19.104;2023-11-19T04:00:42;18.52;;;12.00;;
79204;SDS011;68632;47.512;19.104;2023-11-19T04:01:45;17.77;;;10.55;;
79204;SDS011;68632;47.512;19.104;2023-11-19T04:02:47;21.77;;;12.10;;
79204;SDS011;68632;47.512;19.104;2023-11-19T04:03:49;19.98;;;10.93;;
79204;SDS011;68632;47.512;19.104;2023-11-19T04:04:52;19.98;;;11.68;;
79204;SDS011;68632;47.512;19.104;2023-11-19T04:05:54;19.00;;;10.73;;
79204;SDS011;68632;47.512;19.104;2023-11-19T04:06:56;18.75;;;10.75;;
79204;SDS011;68632;47.512;19.104;2023-11-19T04:07:59;20.15;;;11.05;;
79204;SDS011;68632;47.512;19.104;2023-11-19T04:09:02;19.20;;;11.30;;
79204;SDS011;68632;47.512;19.104;2023-11-19T04:10:04;20.02;;;12.00;;
79204;SDS011;68632;47.512;19.104;2023-11-19T04:11:07;21.05;;;12.43;;
79204;SDS011;68632;47.512;19.104;2023-11-19T04:12:11;18.75;;;10.52;;
79204;SDS011;68632;47.512;19.104;2023-11-19T04:13:13;19.65;;;12.02;;
79204;SDS011;68632;47.512;19.104;2023-11-19T04:14:15;19.55;;;11.18;;
79204;SDS011;68632;47.512;19.104;2023-11-19T04:15:20;21.23;;;11.27;;
79204;SDS011;68632;47.512;19.104;2023-11-19T04:16:27;23.05;;;12.25;;
79204;SDS011;68632;47.512;19.104;2023-11-19T04:17:30;20.67;;;11.93;;
79204;SDS011;68632;47.512;19.104;2023-11-19T04:18:33;19.55;;;12.05;;
79204;SDS011;68632;47.512;19.104;2023-11-19T04:19:35;21.33;;;11.77;;
79204;SDS011;68632;47.512;19.104;2023-11-19T04:20:37;20.05;;;12.70;;
79204;SDS011;68632;47.512;19.104;2023-11-19T04:21:40;18.02;;;12.07;;
79204;SDS011;68632;47.512;19.104;2023-11-19T04:22:43;17.23;;;10.73;;
79204;SDS011;68632;47.512;19.104;2023-11-19T04:23:45;20.48;;;12.65;;
79204;SDS011;68632;47.512;19.104;2023-11-19T04:24:47;16.38;;;10.07;;
79204;SDS011;68632;47.512;19.104;2023-11-19T04:25:49;16.13;;;11.05;;
79204;SDS011;68632;47.512;19.104;2023-11-19T04:26:51;17.17;;;10.60;;
79204;SDS011;68632;47.512;19.104;2023-11-19T04:27:54;17.13;;;11.93;;
79204;SDS011;68632;47.512;19.104;2023-11-19T04:28:56;21.92;;;12.15;;
79204;SDS011;68632;47.512;19.104;2023-11-19T04:29:58;21.92;;;11.40;;
79204;SDS011;68632;47.512;19.104;2023-11-19T04:31:02;21.63;;;10.52;;
79204;SDS011;68632;47.512;19.104;2023-11-19T04:32:05;20.95;;;11.70;;
79204;SDS011;68632;47.512;19.104;2023-11-19T04:33:08;20.80;;;12.68;;
79204;SDS011;68632;47.512;19.104;2023-11-19T04:34:10;22.25;;;12.10;;
79204;SDS011;68632;47.512;19.104;2023-11-19T04:35:13;18.25;;;11.80;;
79204;SDS011;68632;47.512;19.104;2023-11-19T04:36:18;19.65;;;12.15;;
79204;SDS011;68632;47.512;19.104;2023-11-19T04:37:20;18.05;;;11.93;;
79204;SDS011;68632;47.512;19.104;2023-11-19T04:38:23;18.00;;;12.18;;
79204;SDS011;68632;47.512;19.104;2023-11-19T04:39:25;22.00;;;12.82;;
79204;SDS011;68632;47.512;19.104;2023-11-19T04:40:28;23.10;;;12.93;;
79204;SDS011;68632;47.512;19.104;2023-11-19T04:41:31;19.85;;;11.40;;
79204;SDS011;68632;47.512;19.104;2023-11-19T04:42:33;18.35;;;11.77;;
79204;SDS011;68632;47.512;19.104;2023-11-19T04:43:35;19.90;;;12.35;;
79204;SDS011;68632;47.512;19.104;2023-11-19T04:44:38;20.77;;;11.75;;
79204;SDS011;68632;47.512;19.104;2023-11-19T04:45:40;22.98;;;12.18;;
79204;SDS011;68632;47.512;19.104;2023-11-19T04:46:42;17.90;;;10.52;;
79204;SDS011;68632;47.512;19.104;2023-11-19T04:47:47;18.17;;;11.77;;
79204;SDS011;68632;47.512;19.104;2023-11-19T04:48:50;18.38;;;11.07;;
79204;SDS011;68632;47.512;19.104;2023-11-19T04:49:52;16.83;;;11.02;;
79204;SDS011;68632;47.512;19.104;2023-11-19T04:50:54;18.70;;;11.07;;
79204;SDS011;68632;47.512;19.104;2023-11-19T04:51:56;21.45;;;12.35;;
79204;SDS011;68632;47.512;19.104;2023-11-19T04:52:59;18.88;;;13.25;;
79204;SDS011;68632;47.512;19.104;2023-11-19T04:54:02;21.00;;;12.57;;
79204;SDS011;68632;47.512;19.104;2023-11-19T04:55:04;20.65;;;11.18;;
79204;SDS011;68632;47.512;19.104;2023-11-19T04:56:10;21.17;;;11.68;;
79204;SDS011;68632;47.512;19.104;2023-11-19T04:57:12;18.38;;;11.38;;
79204;SDS011;68632;47.512;19.104;2023-11-19T04:58:15;16.23;;;11.27;;
79204;SDS011;68632;47.512;19.104;2023-11-19T04:59:17;21.38;;;12.15;;
79204;SDS011;68632;47.512;19.104;2023-11-19T05:00:19;20.35;;;12.20;;
79204;SDS011;68632;47.512;19.104;2023-11-19T05:01:24;19.30;;;10.93;;
79204;SDS011;68632;47.512;19.104;2023-11-19T05:02:27;18.40;;;10.02;;
79204;SDS011;68632;47.512;19.104;2023-11-19T05:03:29;19.48;;;12.40;;
79204;SDS011;68632;47.512;19.104;2023-11-19T05:04:34;18.67;;;11.82;;
79204;SDS011;68632;47.512;19.104;2023-11-19T05:05:37;20.35;;;12.35;;
79204;SDS011;68632;47.512;19.104;2023-11-19T05:06:39;17.77;;;12.70;;
79204;SDS011;68632;47.512;19.104;2023-11-19T05:07:41;22.17;;;10.65;;
79204;SDS011;68632;47.512;19.104;2023-11-19T05:08:44;18.70;;;11.80;;
79204;SDS011;68632;47.512;19.104;2023-11-19T05:09:46;22.52;;;13.30;;
79204;SDS011;68632;47.512;19.104;2023-11-19T05:10:48;20.52;;;13.95;;
79204;SDS011;68632;47.512;19.104;2023-11-19T05:11:50;20.33;;;12.80;;
79204;SDS011;68632;47.512;19.104;2023-11-19T05:12:53;19.73;;;12.40;;
79204;SDS011;68632;47.512;19.104;2023-11-19T05:13:57;19.25;;;12.77;;
79204;SDS011;68632;47.512;19.104;2023-11-19T05:15:00;17.65;;;11.52;;
79204;SDS011;68632;47.512;19.104;2023-11-19T05:16:02;18.85;;;12.10;;
79204;SDS011;68632;47.512;19.104;2023-11-19T05:17:04;23.48;;;12.45;;
79204;SDS011;68632;47.512;19.104;2023-11-19T05:18:06;18.25;;;12.45;;
79204;SDS011;68632;47.512;19.104;2023-11-19T05:19:09;21.05;;;12.07;;
79204;SDS011;68632;47.512;19.104;2023-11-19T05:20:11;17.05;;;11.43;;
79204;SDS011;68632;47.512;19.104;2023-11-19T05:21:15;18.40;;;11.82;;
79204;SDS011;68632;47.512;19.104;2023-11-19T05:22:19;19.13;;;12.48;;
79204;SDS011;68632;47.512;19.104;2023-11-19T05:23:22;19.10;;;11.50;;
79204;SDS011;68632;47.512;19.104;2023-11-19T05:24:24;21.88;;;12.95;;
79204;SDS011;68632;47.512;19.104;2023-11-19T05:25:27;17.58;;;12.27;;
79204;SDS011;68632;47.512;19.104;2023-11-19T05:26:29;19.80;;;12.25;;
79204;SDS011;68632;47.512;19.104;2023-11-19T05:27:31;19.98;;;12.85;;
79204;SDS011;68632;47.512;19.104;2023-11-19T05:28:33;23.15;;;12.70;;
79204;SDS011;68632;47.512;19.104;2023-11-19T05:29:36;20.83;;;12.50;;
79204;SDS011;68632;47.512;19.104;2023-11-19T05:30:41;18.98;;;12.02;;
79204;SDS011;68632;47.512;19.104;2023-11-19T05:31:43;20.50;;;12.43;;
79204;SDS011;68632;47.512;19.104;2023-11-19T05:32:46;17.17;;;11.80;;
79204;SDS011;68632;47.512;19.104;2023-11-19T05:33:48;20.55;;;10.07;;
79204;SDS011;68632;47.512;19.104;2023-11-19T05:34:50;18.67;;;11.88;;
79204;SDS011;68632;47.512;19.104;2023-11-19T05:35:53;20.38;;;12.82;;
79204;SDS011;68632;47.512;19.104;2023-11-19T05:36:56;20.58;;;11.30;;
79204;SDS011;68632;47.512;19.104;2023-11-19T05:37:59;18.25;;;12.23;;
79204;SDS011;68632;47.512;19.104;2023-11-19T05:39:01;20.60;;;12.38;;
79204;SDS011;68632;47.512;19.104;2023-11-19T05:40:05;21.33;;;13.57;;
79204;SDS011;68632;47.512;19.104;2023-11-19T05:41:16;17.25;;;11.90;;
79204;SDS011;68632;47.512;19.104;2023-11-19T05:42:18;19.90;;;11.70;;
79204;SDS011;68632;47.512;19.104;2023-11-19T05:43:21;21.67;;;12.10;;
79204;SDS011;68632;47.512;19.104;2023-11-19T05:44:23;18.70;;;12.07;;
79204;SDS011;68632;47.512;19.104;2023-11-19T05:45:25;20.85;;;11.48;;
79204;SDS011;68632;47.512;19.104;2023-11-19T05:46:27;20.88;;;12.50;;
79204;SDS011;68632;47.512;19.104;2023-11-19T05:47:30;22.02;;;12.98;;
79204;SDS011;68632;47.512;19.104;2023-11-19T05:48:32;16.85;;;11.85;;
79204;SDS011;68632;47.512;19.104;2023-11-19T05:49:34;21.80;;;13.60;;
79204;SDS011;68632;47.512;19.104;2023-11-19T05:50:37;19.08;;;11.88;;
79204;SDS011;68632;47.512;19.104;2023-11-19T05:51:39;22.10;;;12.95;;
79204;SDS011;68632;47.512;19.104;2023-11-19T05:52:42;20.55;;;11.82;;
79204;SDS011;68632;47.512;19.104;2023-11-19T05:53:45;20.23;;;11.13;;
79204;SDS011;68632;47.512;19.104;2023-11-19T05:54:48;19.98;;;11.35;;
79204;SDS011;68632;47.512;19.104;2023-11-19T05:55:53;20.90;;;12.52;;
79204;SDS011;68632;47.512;19.104;2023-11-19T05:56:58;20.42;;;12.57;;
79204;SDS011;68632;47.512;19.104;2023-11-19T05:58:00;21.70;;;12.45;;
79204;SDS011;68632;47.512;19.104;2023-11-19T05:59:02;24.02;;;13.75;;
79204;SDS011;68632;47.512;19.104;2023-11-19T06:00:09;22.15;;;10.90;;
79204;SDS011;68632;47.512;19.104;2023-11-19T06:01:15;22.48;;;13.10;;
79204;SDS011;68632;47.512;19.104;2023-11-19T06:02:17;19.45;;;12.75;;
79204;SDS011;68632;47.512;19.104;2023-11-19T06:03:19;22.00;;;12.00;;
79204;SDS011;68632;47.512;19.104;2023-11-19T06:04:23;27.08;;;14.93;;
79204;SDS011;68632;47.512;19.104;2023-11-19T06:05:25;20.90;;;13.15;;
79204;SDS011;68632;47.512;19.104;2023-11-19T06:06:29;24.92;;;13.50;;